createdAt,value
2022-09-07T00:00:06.083Z,100.00
2022-09-07T00:02:32.941Z,100.00
2022-09-07T00:04:59.861Z,100.00
2022-09-07T00:07:26.813Z,100.00
2022-09-07T00:09:53.892Z,100.00
2022-09-07T00:12:20.723Z,100.00
2022-09-07T00:14:47.765Z,100.00
2022-09-07T00:17:14.594Z,100.00
2022-09-07T00:19:42.717Z,100.00
2022-09-07T00:22:09.587Z,100.00
2022-09-07T00:24:36.706Z,100.00
2022-09-07T00:27:03.569Z,100.00
2022-09-07T00:29:30.331Z,100.00
2022-09-07T00:31:57.348Z,100.00
2022-09-07T00:34:24.411Z,100.00
2022-09-07T00:36:51.375Z,100.00
2022-09-07T00:39:18.187Z,100.00
2022-09-07T00:41:45.431Z,100.00
2022-09-07T00:44:43.267Z,100.00
2022-09-07T00:47:21.342Z,100.00
2022-09-07T00:49:55.022Z,100.00
2022-09-07T00:52:23.567Z,100.00
2022-09-07T00:54:59.879Z,100.00
2022-09-07T00:57:28.239Z,100.00
2022-09-07T00:59:57.577Z,100.00
2022-09-07T01:02:26.480Z,100.00
2022-09-07T01:05:04.503Z,100.00
2022-09-07T01:07:34.311Z,100.00
2022-09-07T01:10:02.054Z,100.00
2022-09-07T01:12:29.013Z,100.00
2022-09-07T01:14:56.005Z,100.00
2022-09-07T01:17:45.803Z,100.00
2022-09-07T01:20:27.364Z,100.00
2022-09-07T01:23:32.254Z,100.00
2022-09-07T01:26:27.012Z,100.00
2022-09-07T01:29:11.371Z,100.00
2022-09-07T01:32:13.995Z,100.00
2022-09-07T01:34:43.802Z,100.00
2022-09-07T01:37:32.335Z,100.00
2022-09-07T01:40:14.465Z,100.00
2022-09-07T01:43:01.090Z,100.00
2022-09-07T01:45:32.231Z,100.00
2022-09-07T01:48:04.692Z,100.00
2022-09-07T01:50:38.806Z,100.00
2022-09-07T01:53:26.678Z,100.00
2022-09-07T01:55:59.653Z,100.00
2022-09-07T01:58:31.855Z,100.00
2022-09-07T02:01:08.359Z,100.00
2022-09-07T02:04:10.746Z,100.00
2022-09-07T02:06:43.036Z,100.00
2022-09-07T02:09:28.178Z,100.00
2022-09-07T02:11:55.181Z,100.00
2022-09-07T02:14:29.292Z,100.00
2022-09-07T02:17:06.412Z,100.00
2022-09-07T02:19:42.602Z,100.00
2022-09-07T02:22:16.187Z,100.00
2022-09-07T02:24:52.615Z,100.00
2022-09-07T02:27:28.141Z,100.00
2022-09-07T02:29:55.133Z,100.00
2022-09-07T02:32:21.909Z,100.00
2022-09-07T02:34:49.623Z,100.00
2022-09-07T02:37:18.147Z,100.00
2022-09-07T02:39:45.773Z,100.00
2022-09-07T02:42:12.693Z,100.00
2022-09-07T02:44:41.106Z,100.00
2022-09-07T02:47:46.088Z,100.00
2022-09-07T02:50:29.305Z,100.00
2022-09-07T02:53:10.905Z,100.00
2022-09-07T02:55:43.842Z,100.00
2022-09-07T02:58:35.093Z,100.00
2022-09-07T03:01:32.209Z,100.00
2022-09-07T03:04:34.382Z,100.00
2022-09-07T03:07:11.037Z,100.00
2022-09-07T03:09:42.334Z,100.00
2022-09-07T03:12:10.353Z,100.00
2022-09-07T03:14:40.029Z,100.00
2022-09-07T03:17:08.073Z,100.00
2022-09-07T03:19:34.821Z,100.00
2022-09-07T03:22:02.271Z,100.00
2022-09-07T03:24:29.520Z,100.00
2022-09-07T03:26:56.903Z,100.00
2022-09-07T03:29:23.839Z,100.00
2022-09-07T03:31:50.962Z,100.00
2022-09-07T03:34:17.676Z,100.00
2022-09-07T03:36:44.769Z,100.00
2022-09-07T03:39:13.400Z,100.00
2022-09-07T03:41:40.494Z,100.00
2022-09-07T03:44:08.239Z,100.00
2022-09-07T03:46:35.915Z,100.00
2022-09-07T03:49:03.228Z,100.00
2022-09-07T03:51:31.251Z,100.00
2022-09-07T03:53:59.853Z,100.00
2022-09-07T03:56:27.499Z,100.00
2022-09-07T03:58:55.692Z,100.00
2022-09-07T04:01:24.771Z,100.00
2022-09-07T04:03:52.334Z,100.00
2022-09-07T04:06:20.438Z,100.00
2022-09-07T04:08:47.407Z,100.00
2022-09-07T04:11:17.117Z,100.00
2022-09-07T04:13:47.597Z,100.00
2022-09-07T04:16:26.101Z,100.00
2022-09-07T04:18:56.500Z,100.00
2022-09-07T04:21:24.480Z,100.00
2022-09-07T04:23:52.352Z,100.00
2022-09-07T04:26:29.672Z,100.00
2022-09-07T04:28:57.133Z,100.00
2022-09-07T04:31:24.337Z,100.00
2022-09-07T04:33:52.017Z,100.00
2022-09-07T04:36:20.457Z,100.00
2022-09-07T04:38:48.492Z,100.00
2022-09-07T04:41:17.655Z,100.00
2022-09-07T04:43:46.273Z,100.00
2022-09-07T04:46:22.789Z,100.00
2022-09-07T04:48:51.523Z,100.00
2022-09-07T04:51:19.482Z,100.00
2022-09-07T04:53:51.747Z,100.00
2022-09-07T04:56:19.710Z,100.00
2022-09-07T04:58:47.819Z,100.00
2022-09-07T05:01:20.566Z,100.00
2022-09-07T05:03:48.020Z,100.00
2022-09-07T05:06:16.943Z,100.00
2022-09-07T05:08:46.743Z,100.00
2022-09-07T05:11:15.287Z,100.00
2022-09-07T05:13:42.333Z,100.00
2022-09-07T05:16:10.289Z,100.00
2022-09-07T05:18:37.885Z,100.00
2022-09-07T05:21:16.453Z,100.00
2022-09-07T05:23:44.416Z,100.00
2022-09-07T05:26:12.480Z,100.00
2022-09-07T05:28:39.707Z,100.00
2022-09-07T05:31:19.627Z,100.00
2022-09-07T05:36:35.711Z,100.00
2022-09-07T05:39:03.241Z,100.00
2022-09-07T05:41:30.138Z,100.00
2022-09-07T05:46:44.039Z,100.00
2022-09-07T05:49:10.984Z,100.00
2022-09-07T05:51:38.355Z,100.00
2022-09-07T05:54:05.310Z,100.00
2022-09-07T05:56:35.161Z,100.00
2022-09-07T05:59:02.131Z,100.00
2022-09-07T06:01:29.015Z,100.00
2022-09-07T06:03:55.866Z,100.00
2022-09-07T06:06:22.846Z,100.00
2022-09-07T06:08:52.686Z,100.00
2022-09-07T06:11:22.227Z,100.00
2022-09-07T06:13:49.289Z,100.00
2022-09-07T06:16:17.651Z,100.00
2022-09-07T06:18:46.542Z,100.00
2022-09-07T06:21:18.927Z,100.00
2022-09-07T06:23:46.856Z,100.00
2022-09-07T06:26:15.093Z,100.00
2022-09-07T06:28:49.472Z,100.00
2022-09-07T06:31:20.471Z,100.00
2022-09-07T06:33:48.364Z,100.00
2022-09-07T06:36:23.253Z,100.00
2022-09-07T06:38:51.103Z,100.00
2022-09-07T06:44:07.484Z,93.33
2022-09-07T06:49:23.514Z,88.22
2022-09-07T06:51:50.936Z,87.66
2022-09-07T06:57:09.269Z,84.74
2022-09-07T06:59:37.277Z,85.17
2022-09-07T07:02:05.334Z,86.04
2022-09-07T07:04:34.168Z,89.33
2022-09-07T07:07:04.817Z,90.30
2022-09-07T07:09:31.553Z,92.62
2022-09-07T07:11:58.650Z,93.00
2022-09-07T07:14:25.335Z,95.32
2022-09-07T07:16:52.292Z,96.94
2022-09-07T07:19:19.045Z,96.68
2022-09-07T07:22:13.998Z,95.70
2022-09-07T07:24:33.027Z,93.79
2022-09-07T07:26:59.980Z,90.87
2022-09-07T07:29:28.247Z,90.04
2022-09-07T07:31:55.302Z,88.87
2022-09-07T07:34:22.653Z,85.47
2022-09-07T07:36:49.618Z,78.22
2022-09-07T07:42:05.918Z,78.52
2022-09-07T07:44:33.206Z,81.35
2022-09-07T07:47:00.181Z,80.96
2022-09-07T07:49:27.613Z,81.34
2022-09-07T07:54:43.149Z,78.77
2022-09-07T07:57:10.412Z,72.01
2022-09-07T07:59:38.156Z,68.00
2022-09-07T08:02:13.710Z,69.44
2022-09-07T08:04:40.892Z,72.23
2022-09-07T08:07:11.028Z,70.54
2022-09-07T08:09:42.874Z,67.53
2022-09-07T08:12:12.197Z,70.61
2022-09-07T08:14:43.097Z,64.62
2022-09-07T08:17:11.680Z,60.76
2022-09-07T08:19:39.018Z,61.08
2022-09-07T08:22:06.730Z,59.34
2022-09-07T08:24:33.818Z,57.21
2022-09-07T08:27:00.702Z,58.36
2022-09-07T08:29:31.245Z,54.91
2022-09-07T08:32:01.901Z,57.52
2022-09-07T08:34:28.798Z,55.07
2022-09-07T08:36:55.418Z,57.01
2022-09-07T08:39:22.406Z,56.60
2022-09-07T08:42:03.843Z,51.42
2022-09-07T08:44:37.583Z,47.13
2022-09-07T08:47:12.606Z,54.40
2022-09-07T08:50:11.349Z,51.52
2022-09-07T08:52:50.468Z,48.91
2022-09-07T08:55:31.867Z,48.77
2022-09-07T08:58:27.121Z,47.19
2022-09-07T09:06:52.613Z,46.36
2022-09-07T09:09:46.186Z,49.84
2022-09-07T09:12:15.998Z,49.79
2022-09-07T09:14:56.757Z,46.58
2022-09-07T09:17:38.357Z,44.54
2022-09-07T09:20:14.121Z,43.08
2022-09-07T09:22:41.197Z,42.43
2022-09-07T09:25:22.102Z,47.26
2022-09-07T09:27:49.571Z,45.31
2022-09-07T09:30:24.334Z,43.89
2022-09-07T09:33:11.436Z,44.13
2022-09-07T09:35:39.525Z,45.59
2022-09-07T09:38:29.346Z,38.77
2022-09-07T09:40:58.342Z,31.43
2022-09-07T09:43:28.760Z,29.14
2022-09-07T09:46:13.329Z,26.86
2022-09-07T09:48:41.697Z,26.06
2022-09-07T09:54:02.432Z,27.26
2022-09-07T09:56:44.400Z,28.31
2022-09-07T10:05:29.735Z,25.32
2022-09-07T10:07:57.133Z,23.56
2022-09-07T10:10:26.216Z,22.95
2022-09-07T10:12:54.702Z,23.12
2022-09-07T10:15:40.926Z,22.58
2022-09-07T10:18:18.887Z,22.38
2022-09-07T10:20:45.723Z,25.15
2022-09-07T10:23:24.155Z,24.63
2022-09-07T10:25:51.343Z,24.69
2022-09-07T10:29:06.567Z,25.01
2022-09-07T10:31:31.920Z,23.42
2022-09-07T10:37:08.950Z,23.43
2022-09-07T10:39:43.810Z,21.33
2022-09-07T10:42:17.060Z,22.73
2022-09-07T10:44:52.284Z,22.67
2022-09-07T10:47:44.483Z,21.92
2022-09-07T10:50:33.336Z,22.88
2022-09-07T10:53:43.147Z,22.32
2022-09-07T10:56:10.481Z,26.04
2022-09-07T10:59:04.787Z,24.44
2022-09-07T11:01:46.830Z,22.36
2022-09-07T11:04:49.874Z,21.75
2022-09-07T11:07:44.641Z,21.11
2022-09-07T11:10:12.193Z,21.03
2022-09-07T11:12:42.027Z,21.69
2022-09-07T11:15:24.205Z,21.03
2022-09-07T11:18:28.814Z,22.12
2022-09-07T11:21:01.357Z,19.83
2022-09-07T11:23:44.327Z,20.79
2022-09-07T11:26:23.844Z,20.14
2022-09-07T11:31:48.203Z,19.82
2022-09-07T11:34:25.537Z,20.56
2022-09-07T11:37:20.043Z,20.15
2022-09-07T11:39:55.467Z,21.56
2022-09-07T11:42:48.029Z,21.75
2022-09-07T11:45:31.144Z,20.42
2022-09-07T11:48:11.438Z,20.81
2022-09-07T11:50:47.255Z,21.25
2022-09-07T11:53:47.034Z,20.43
2022-09-07T11:56:18.958Z,19.60
2022-09-07T11:59:05.470Z,20.47
2022-09-07T12:01:40.200Z,20.06
2022-09-07T12:04:19.062Z,20.53
2022-09-07T12:07:00.803Z,19.46
2022-09-07T12:09:52.248Z,19.98
2022-09-07T12:12:49.934Z,19.71
2022-09-07T12:15:44.537Z,18.03
2022-09-07T12:18:32.367Z,20.17
2022-09-07T12:20:59.465Z,19.94
2022-09-07T12:23:32.096Z,20.42
2022-09-07T12:26:34.388Z,20.45
2022-09-07T12:29:02.535Z,20.14
2022-09-07T12:32:52.402Z,19.50
2022-09-07T12:34:51.653Z,19.66
2022-09-07T12:37:27.921Z,20.69
2022-09-07T12:40:28.923Z,21.56
2022-09-07T12:43:13.976Z,18.43
2022-09-07T12:45:40.917Z,20.03
2022-09-07T12:48:17.627Z,24.06
2022-09-07T12:50:56.349Z,24.46
2022-09-07T12:53:33.662Z,24.02
2022-09-07T12:56:17.063Z,28.42
2022-09-07T12:59:16.057Z,28.71
2022-09-07T13:02:03.696Z,24.69
2022-09-07T13:05:06.358Z,26.15
2022-09-07T13:08:04.085Z,26.42
2022-09-07T13:10:37.803Z,27.73
2022-09-07T13:16:11.744Z,24.62
2022-09-07T13:18:43.777Z,24.91
2022-09-07T13:21:12.023Z,25.43
2022-09-07T13:23:40.063Z,23.85
2022-09-07T13:26:10.833Z,23.74
2022-09-07T13:28:56.101Z,29.38
2022-09-07T13:32:08.017Z,34.62
2022-09-07T13:34:34.973Z,41.72
2022-09-07T13:37:05.608Z,48.67
2022-09-07T13:39:40.878Z,50.57
2022-09-07T13:42:16.516Z,51.17
2022-09-07T13:45:01.609Z,52.54
2022-09-07T13:47:49.973Z,54.80
2022-09-07T13:50:55.565Z,52.05
2022-09-07T13:53:28.259Z,56.00
2022-09-07T13:56:14.652Z,55.22
2022-09-07T13:58:44.271Z,58.28
2022-09-07T14:01:13.683Z,57.52
2022-09-07T14:03:49.686Z,60.51
2022-09-07T14:06:28.219Z,62.94
2022-09-07T14:09:01.636Z,62.06
2022-09-07T14:11:42.629Z,61.85
2022-09-07T14:14:18.976Z,61.70
2022-09-07T14:17:02.927Z,59.24
2022-09-07T14:19:39.894Z,59.31
2022-09-07T14:22:25.101Z,59.00
2022-09-07T14:24:55.658Z,60.53
2022-09-07T14:27:42.969Z,60.33
2022-09-07T14:30:19.492Z,58.63
2022-09-07T14:32:48.920Z,59.59
2022-09-07T14:35:18.820Z,61.64
2022-09-07T14:37:48.046Z,63.41
2022-09-07T14:40:22.022Z,65.51
2022-09-07T14:42:50.271Z,66.62
2022-09-07T14:45:23.271Z,67.32
2022-09-07T14:47:52.867Z,69.61
2022-09-07T14:50:39.196Z,71.32
2022-09-07T14:56:09.222Z,72.58
2022-09-07T14:58:36.297Z,71.94
2022-09-07T15:04:02.716Z,74.60
2022-09-07T15:07:02.170Z,74.52
2022-09-07T15:09:36.519Z,73.39
2022-09-07T15:12:36.391Z,73.87
2022-09-07T15:15:26.310Z,72.67
2022-09-07T15:17:55.679Z,71.04
2022-09-07T15:20:44.147Z,71.83
2022-09-07T15:23:19.508Z,72.78
2022-09-07T15:25:53.602Z,72.18
2022-09-07T15:34:17.068Z,72.54
2022-09-07T15:36:51.228Z,73.84
2022-09-07T15:39:27.693Z,73.85
2022-09-07T15:41:54.865Z,75.07
2022-09-07T15:44:26.171Z,74.54
2022-09-07T15:49:49.235Z,75.83
2022-09-07T15:52:18.187Z,76.34
2022-09-07T15:54:45.186Z,77.20
2022-09-07T15:59:59.118Z,76.31
2022-09-07T16:05:12.993Z,76.55
2022-09-07T16:10:31.011Z,76.57
2022-09-07T16:13:02.844Z,76.50
2022-09-07T16:15:45.108Z,77.64
2022-09-07T16:18:16.414Z,76.24
2022-09-07T16:20:44.598Z,75.88
2022-09-07T16:23:14.340Z,76.15
2022-09-07T16:25:42.341Z,75.99
2022-09-07T16:28:10.172Z,77.39
2022-09-07T16:30:40.719Z,76.49
2022-09-07T16:33:09.159Z,75.08
2022-09-07T16:35:36.135Z,77.71
2022-09-07T16:40:51.047Z,77.67
2022-09-07T16:43:18.166Z,78.63
2022-09-07T16:48:33.826Z,82.38
2022-09-07T16:51:02.724Z,83.39
2022-09-07T16:53:31.726Z,84.78
2022-09-07T16:56:16.949Z,85.66
2022-09-07T16:58:54.839Z,85.49
2022-09-07T17:01:34.514Z,86.75
2022-09-07T17:04:05.548Z,88.68
2022-09-07T17:06:36.795Z,87.70
2022-09-07T17:09:03.771Z,87.23
2022-09-07T17:11:33.459Z,89.65
2022-09-07T17:14:00.373Z,90.09
2022-09-07T17:16:32.714Z,91.66
2022-09-07T17:21:54.055Z,93.33
2022-09-07T17:24:21.414Z,90.30
2022-09-07T17:26:48.254Z,89.16
2022-09-07T17:29:15.433Z,87.91
2022-09-07T17:34:30.352Z,89.03
2022-09-07T17:36:57.729Z,88.81
2022-09-07T17:39:24.934Z,89.71
2022-09-07T17:41:53.191Z,90.60
2022-09-07T17:44:21.920Z,89.63
2022-09-07T17:46:48.864Z,89.17
2022-09-07T17:49:17.022Z,90.45
2022-09-07T17:51:45.288Z,91.20
2022-09-07T17:54:16.024Z,92.03
2022-09-07T17:56:44.729Z,91.32
2022-09-07T18:01:59.084Z,88.72
2022-09-07T18:04:26.377Z,89.55
2022-09-07T18:06:54.562Z,89.42
2022-09-07T18:09:22.051Z,88.54
2022-09-07T18:11:50.089Z,86.29
2022-09-07T18:14:18.902Z,85.51
2022-09-07T18:16:49.404Z,86.12
2022-09-07T18:19:18.187Z,87.03
2022-09-07T18:21:47.927Z,89.92
2022-09-07T18:24:19.434Z,90.80
2022-09-07T18:26:52.203Z,92.08
2022-09-07T18:29:30.183Z,93.10
2022-09-07T18:31:58.947Z,94.11
2022-09-07T18:34:26.492Z,94.61
2022-09-07T18:36:53.840Z,94.87
2022-09-07T18:39:22.018Z,95.74
2022-09-07T18:41:48.923Z,96.65
2022-09-07T18:47:02.776Z,96.63
2022-09-07T18:49:29.505Z,97.66
2022-09-07T18:54:43.698Z,97.29
2022-09-07T18:57:10.356Z,98.33
2022-09-07T18:59:37.339Z,96.50
2022-09-07T19:02:06.268Z,96.01
2022-09-07T19:07:23.993Z,96.01
2022-09-07T19:09:54.282Z,96.13
2022-09-07T19:12:21.278Z,95.52
2022-09-07T19:14:47.932Z,95.13
2022-09-07T19:17:14.951Z,95.07
2022-09-07T19:19:42.143Z,94.61
2022-09-07T19:22:09.125Z,95.08
2022-09-07T19:24:35.831Z,94.69
2022-09-07T19:27:02.773Z,94.03
2022-09-07T19:29:29.824Z,93.69
2022-09-07T19:32:06.969Z,93.61
2022-09-07T19:34:35.867Z,93.43
2022-09-07T19:37:04.009Z,93.40
2022-09-07T19:39:30.873Z,93.74
2022-09-07T19:41:57.767Z,94.13
2022-09-07T19:44:24.504Z,94.54
2022-09-07T19:46:51.403Z,95.09
2022-09-07T19:49:18.244Z,93.31
2022-09-07T19:51:45.647Z,93.47
2022-09-07T19:54:14.646Z,94.00
2022-09-07T19:56:42.902Z,93.98
2022-09-07T19:59:10.070Z,94.61
2022-09-07T20:01:38.727Z,95.49
2022-09-07T20:04:12.256Z,95.92
2022-09-07T20:06:41.742Z,96.17
2022-09-07T20:09:09.027Z,96.33
2022-09-07T20:11:40.855Z,97.18
2022-09-07T20:14:10.886Z,97.88
2022-09-07T20:16:39.426Z,100.00
2022-09-07T20:19:07.761Z,100.00
2022-09-07T20:21:36.945Z,100.00
2022-09-07T20:24:04.425Z,100.00
2022-09-07T20:26:32.392Z,100.00
2022-09-07T20:29:23.449Z,100.00
2022-09-07T20:31:47.235Z,100.00
2022-09-07T20:34:14.785Z,100.00
2022-09-07T20:36:42.106Z,100.00
2022-09-07T20:39:15.814Z,100.00
2022-09-07T20:41:42.810Z,100.00
2022-09-07T20:44:10.055Z,100.00
2022-09-07T20:46:36.926Z,100.00
2022-09-07T20:49:04.813Z,100.00
2022-09-07T20:51:32.194Z,100.00
2022-09-07T20:53:59.147Z,100.00
2022-09-07T20:56:29.480Z,100.00
2022-09-07T20:59:01.783Z,100.00
2022-09-07T21:01:30.610Z,100.00
2022-09-07T21:03:59.199Z,100.00
2022-09-07T21:06:27.511Z,100.00
2022-09-07T21:08:56.161Z,100.00
2022-09-07T21:11:29.018Z,100.00
2022-09-07T21:14:03.666Z,100.00
2022-09-07T21:16:31.076Z,100.00
2022-09-07T21:19:00.138Z,100.00
2022-09-07T21:21:28.881Z,100.00
2022-09-07T21:24:00.863Z,100.00
2022-09-07T21:26:28.981Z,100.00
2022-09-07T21:29:01.280Z,100.00
2022-09-07T21:31:30.146Z,100.00
2022-09-07T21:33:59.576Z,100.00
2022-09-07T21:36:27.635Z,100.00
2022-09-07T21:38:54.691Z,100.00
2022-09-07T21:41:23.897Z,100.00
2022-09-07T21:44:01.812Z,100.00
2022-09-07T21:46:31.815Z,100.00
2022-09-07T21:48:59.754Z,100.00
2022-09-07T21:51:27.465Z,100.00
2022-09-07T21:53:56.030Z,100.00
2022-09-07T21:56:23.059Z,100.00
2022-09-07T21:58:57.459Z,100.00
2022-09-07T22:01:26.263Z,100.00
2022-09-07T22:04:01.776Z,100.00
2022-09-07T22:06:29.750Z,100.00
2022-09-07T22:08:56.646Z,100.00
2022-09-07T22:11:25.916Z,100.00
2022-09-07T22:14:01.980Z,100.00
2022-09-07T22:16:29.723Z,100.00
2022-09-07T22:18:56.743Z,100.00
2022-09-07T22:21:25.943Z,100.00
2022-09-07T22:23:56.052Z,100.00
2022-09-07T22:26:25.398Z,100.00
2022-09-07T22:28:52.971Z,100.00
2022-09-07T22:31:25.053Z,100.00
2022-09-07T22:33:52.925Z,100.00
2022-09-07T22:36:20.970Z,100.00
2022-09-07T22:38:49.896Z,100.00
2022-09-07T22:41:19.699Z,100.00
2022-09-07T22:43:47.613Z,100.00
2022-09-07T22:46:14.945Z,100.00
2022-09-07T22:48:42.132Z,100.00
2022-09-07T22:51:09.027Z,100.00
2022-09-07T22:53:37.925Z,100.00
2022-09-07T22:56:10.867Z,100.00
2022-09-07T22:58:38.612Z,100.00
2022-09-07T23:01:06.478Z,100.00
2022-09-07T23:03:34.930Z,100.00
2022-09-07T23:06:02.835Z,100.00
2022-09-07T23:08:30.004Z,100.00
2022-09-07T23:11:02.912Z,100.00
2022-09-07T23:13:30.031Z,100.00
2022-09-07T23:15:57.114Z,100.00
2022-09-07T23:18:24.261Z,100.00
2022-09-07T23:20:50.942Z,100.00
2022-09-07T23:23:18.159Z,100.00
2022-09-07T23:25:44.892Z,100.00
2022-09-07T23:28:12.452Z,100.00
2022-09-07T23:30:42.624Z,100.00
2022-09-07T23:33:09.314Z,100.00
2022-09-07T23:35:36.328Z,100.00
2022-09-07T23:38:03.530Z,100.00
2022-09-07T23:40:31.782Z,100.00
2022-09-07T23:42:58.815Z,100.00
2022-09-07T23:45:25.611Z,100.00
2022-09-07T23:47:53.181Z,100.00
2022-09-07T23:50:20.050Z,100.00
2022-09-07T23:52:47.253Z,100.00
2022-09-07T23:55:13.914Z,100.00
2022-09-07T23:57:40.713Z,100.00
